sensor_id;sensor_type;location;lat;lon;timestamp;temperature;humidity
69595;DHT22;56800;52.142;5.364;2023-02-20T00:00:17;6.30;83.40
69595;DHT22;56800;52.142;5.364;2023-02-20T00:02:44;6.30;83.40
69595;DHT22;56800;52.142;5.364;2023-02-20T00:05:12;6.40;83.40
69595;DHT22;56800;52.142;5.364;2023-02-20T00:07:39;6.40;83.40
69595;DHT22;56800;52.142;5.364;2023-02-20T00:10:06;6.40;83.40
69595;DHT22;56800;52.142;5.364;2023-02-20T00:12:33;6.40;83.40
69595;DHT22;56800;52.142;5.364;2023-02-20T00:15:00;6.40;83.30
69595;DHT22;56800;52.142;5.364;2023-02-20T00:17:27;6.40;83.30
69595;DHT22;56800;52.142;5.364;2023-02-20T00:19:54;6.40;83.30
69595;DHT22;56800;52.142;5.364;2023-02-20T00:22:22;6.40;83.30
69595;DHT22;56800;52.142;5.364;2023-02-20T00:24:49;6.40;83.30
69595;DHT22;56800;52.142;5.364;2023-02-20T00:27:16;6.50;83.40
69595;DHT22;56800;52.142;5.364;2023-02-20T00:29:44;6.40;83.30
69595;DHT22;56800;52.142;5.364;2023-02-20T00:32:11;6.50;83.30
69595;DHT22;56800;52.142;5.364;2023-02-20T00:34:38;6.50;83.30
69595;DHT22;56800;52.142;5.364;2023-02-20T00:37:05;6.50;83.30
69595;DHT22;56800;52.142;5.364;2023-02-20T00:39:31;6.50;83.30
69595;DHT22;56800;52.142;5.364;2023-02-20T00:41:58;6.50;83.30
69595;DHT22;56800;52.142;5.364;2023-02-20T00:44:25;6.60;83.30
69595;DHT22;56800;52.142;5.364;2023-02-20T00:46:51;6.50;83.30
69595;DHT22;56800;52.142;5.364;2023-02-20T00:49:18;6.50;83.20
69595;DHT22;56800;52.142;5.364;2023-02-20T00:51:45;6.50;83.20
69595;DHT22;56800;52.142;5.364;2023-02-20T00:54:12;6.60;83.20
69595;DHT22;56800;52.142;5.364;2023-02-20T00:56:38;6.60;83.20
69595;DHT22;56800;52.142;5.364;2023-02-20T00:59:05;6.50;83.20
69595;DHT22;56800;52.142;5.364;2023-02-20T01:01:32;6.50;83.30
69595;DHT22;56800;52.142;5.364;2023-02-20T01:03:59;6.60;83.30
69595;DHT22;56800;52.142;5.364;2023-02-20T01:06:25;6.60;83.30
69595;DHT22;56800;52.142;5.364;2023-02-20T01:08:52;6.60;83.30
69595;DHT22;56800;52.142;5.364;2023-02-20T01:11:18;6.60;83.20
69595;DHT22;56800;52.142;5.364;2023-02-20T01:13:45;6.60;83.20
69595;DHT22;56800;52.142;5.364;2023-02-20T01:16:12;6.60;83.30
69595;DHT22;56800;52.142;5.364;2023-02-20T01:18:39;6.60;83.20
69595;DHT22;56800;52.142;5.364;2023-02-20T01:21:06;6.60;83.30
69595;DHT22;56800;52.142;5.364;2023-02-20T01:23:32;6.50;83.20
69595;DHT22;56800;52.142;5.364;2023-02-20T01:25:59;6.60;83.30
69595;DHT22;56800;52.142;5.364;2023-02-20T01:28:26;6.50;83.20
69595;DHT22;56800;52.142;5.364;2023-02-20T01:30:52;6.50;83.30
69595;DHT22;56800;52.142;5.364;2023-02-20T01:33:19;6.50;83.30
69595;DHT22;56800;52.142;5.364;2023-02-20T01:35:46;6.60;83.30
69595;DHT22;56800;52.142;5.364;2023-02-20T01:38:12;6.50;83.20
69595;DHT22;56800;52.142;5.364;2023-02-20T01:40:46;6.50;83.30
69595;DHT22;56800;52.142;5.364;2023-02-20T01:43:14;6.50;83.20
69595;DHT22;56800;52.142;5.364;2023-02-20T01:45:41;6.50;83.20
69595;DHT22;56800;52.142;5.364;2023-02-20T01:48:22;6.50;83.30
69595;DHT22;56800;52.142;5.364;2023-02-20T01:50:52;6.50;83.30
69595;DHT22;56800;52.142;5.364;2023-02-20T01:53:21;6.50;83.50
69595;DHT22;56800;52.142;5.364;2023-02-20T01:55:58;6.50;83.50
69595;DHT22;56800;52.142;5.364;2023-02-20T02:01:02;6.50;83.50
69595;DHT22;56800;52.142;5.364;2023-02-20T02:03:34;6.50;83.70
69595;DHT22;56800;52.142;5.364;2023-02-20T02:06:04;6.50;83.70
69595;DHT22;56800;52.142;5.364;2023-02-20T02:08:35;6.60;83.90
69595;DHT22;56800;52.142;5.364;2023-02-20T02:11:05;6.60;83.80
69595;DHT22;56800;52.142;5.364;2023-02-20T02:13:36;6.60;83.80
69595;DHT22;56800;52.142;5.364;2023-02-20T02:28:05;6.70;83.90
69595;DHT22;56800;52.142;5.364;2023-02-20T02:39:13;6.70;84.30
69595;DHT22;56800;52.142;5.364;2023-02-20T02:44:31;6.70;84.40
69595;DHT22;56800;52.142;5.364;2023-02-20T02:47:06;6.80;84.60
69595;DHT22;56800;52.142;5.364;2023-02-20T02:52:13;6.90;84.80
69595;DHT22;56800;52.142;5.364;2023-02-20T02:55:01;6.90;84.90
69595;DHT22;56800;52.142;5.364;2023-02-20T02:57:28;6.90;84.90
69595;DHT22;56800;52.142;5.364;2023-02-20T03:00:03;7.00;85.00
69595;DHT22;56800;52.142;5.364;2023-02-20T03:02:35;7.00;85.00
69595;DHT22;56800;52.142;5.364;2023-02-20T03:05:05;7.00;85.10
69595;DHT22;56800;52.142;5.364;2023-02-20T03:07:32;7.10;85.20
69595;DHT22;56800;52.142;5.364;2023-02-20T03:10:07;7.10;85.20
69595;DHT22;56800;52.142;5.364;2023-02-20T03:12:37;7.10;85.20
69595;DHT22;56800;52.142;5.364;2023-02-20T03:15:30;7.10;85.20
69595;DHT22;56800;52.142;5.364;2023-02-20T03:18:19;7.20;85.40
69595;DHT22;56800;52.142;5.364;2023-02-20T03:20:56;7.20;85.50
69595;DHT22;56800;52.142;5.364;2023-02-20T03:23:31;7.20;85.40
69595;DHT22;56800;52.142;5.364;2023-02-20T03:26:01;7.30;85.40
69595;DHT22;56800;52.142;5.364;2023-02-20T03:28:44;7.30;85.40
69595;DHT22;56800;52.142;5.364;2023-02-20T03:31:16;7.30;85.50
69595;DHT22;56800;52.142;5.364;2023-02-20T03:36:40;7.40;85.50
69595;DHT22;56800;52.142;5.364;2023-02-20T03:39:31;7.40;85.50
69595;DHT22;56800;52.142;5.364;2023-02-20T03:42:18;7.50;85.40
69595;DHT22;56800;52.142;5.364;2023-02-20T03:45:05;7.50;85.40
69595;DHT22;56800;52.142;5.364;2023-02-20T03:47:33;7.50;85.50
69595;DHT22;56800;52.142;5.364;2023-02-20T03:50:04;7.50;85.40
69595;DHT22;56800;52.142;5.364;2023-02-20T03:52:33;7.50;85.40
69595;DHT22;56800;52.142;5.364;2023-02-20T03:55:00;7.60;85.40
69595;DHT22;56800;52.142;5.364;2023-02-20T03:57:31;7.60;85.50
69595;DHT22;56800;52.142;5.364;2023-02-20T04:00:05;7.60;85.50
69595;DHT22;56800;52.142;5.364;2023-02-20T04:02:37;7.70;85.50
69595;DHT22;56800;52.142;5.364;2023-02-20T04:05:10;7.70;85.40
69595;DHT22;56800;52.142;5.364;2023-02-20T04:07:50;7.70;85.50
69595;DHT22;56800;52.142;5.364;2023-02-20T04:10:23;7.70;85.40
69595;DHT22;56800;52.142;5.364;2023-02-20T04:12:52;7.70;86.30
69595;DHT22;56800;52.142;5.364;2023-02-20T04:15:21;7.70;85.40
69595;DHT22;56800;52.142;5.364;2023-02-20T04:18:08;7.70;85.40
69595;DHT22;56800;52.142;5.364;2023-02-20T04:20:36;7.80;86.20
69595;DHT22;56800;52.142;5.364;2023-02-20T04:23:13;7.80;85.40
69595;DHT22;56800;52.142;5.364;2023-02-20T04:25:45;7.80;85.40
69595;DHT22;56800;52.142;5.364;2023-02-20T04:28:14;7.80;85.40
69595;DHT22;56800;52.142;5.364;2023-02-20T04:30:41;7.80;85.40
69595;DHT22;56800;52.142;5.364;2023-02-20T04:33:13;7.80;85.40
69595;DHT22;56800;52.142;5.364;2023-02-20T04:35:40;7.90;85.40
69595;DHT22;56800;52.142;5.364;2023-02-20T04:38:07;7.90;85.40
69595;DHT22;56800;52.142;5.364;2023-02-20T04:40:35;7.90;85.40
69595;DHT22;56800;52.142;5.364;2023-02-20T04:43:02;7.90;85.30
69595;DHT22;56800;52.142;5.364;2023-02-20T04:45:29;7.90;85.30
69595;DHT22;56800;52.142;5.364;2023-02-20T04:47:56;7.90;85.20
69595;DHT22;56800;52.142;5.364;2023-02-20T04:52:50;8.00;85.20
69595;DHT22;56800;52.142;5.364;2023-02-20T04:55:16;8.00;85.20
69595;DHT22;56800;52.142;5.364;2023-02-20T04:57:43;8.00;85.10
69595;DHT22;56800;52.142;5.364;2023-02-20T05:00:10;8.00;85.00
69595;DHT22;56800;52.142;5.364;2023-02-20T05:02:38;8.00;85.00
69595;DHT22;56800;52.142;5.364;2023-02-20T05:05:08;8.10;85.00
69595;DHT22;56800;52.142;5.364;2023-02-20T05:07:40;8.10;85.00
69595;DHT22;56800;52.142;5.364;2023-02-20T05:10:07;8.10;84.90
69595;DHT22;56800;52.142;5.364;2023-02-20T05:12:33;8.10;84.90
69595;DHT22;56800;52.142;5.364;2023-02-20T05:15:00;8.10;84.90
69595;DHT22;56800;52.142;5.364;2023-02-20T05:17:26;8.10;84.80
69595;DHT22;56800;52.142;5.364;2023-02-20T05:19:53;8.10;84.80
69595;DHT22;56800;52.142;5.364;2023-02-20T05:22:20;8.10;84.80
69595;DHT22;56800;52.142;5.364;2023-02-20T05:24:49;8.10;84.80
69595;DHT22;56800;52.142;5.364;2023-02-20T05:27:19;8.20;84.80
69595;DHT22;56800;52.142;5.364;2023-02-20T05:29:48;8.20;84.80
69595;DHT22;56800;52.142;5.364;2023-02-20T05:32:16;8.20;84.70
69595;DHT22;56800;52.142;5.364;2023-02-20T05:34:43;8.10;84.60
69595;DHT22;56800;52.142;5.364;2023-02-20T05:37:11;8.20;84.60
69595;DHT22;56800;52.142;5.364;2023-02-20T05:39:38;8.20;84.70
69595;DHT22;56800;52.142;5.364;2023-02-20T05:42:05;8.20;84.60
69595;DHT22;56800;52.142;5.364;2023-02-20T05:44:32;8.20;84.60
69595;DHT22;56800;52.142;5.364;2023-02-20T05:47:00;8.20;84.60
69595;DHT22;56800;52.142;5.364;2023-02-20T05:49:27;8.20;84.60
69595;DHT22;56800;52.142;5.364;2023-02-20T05:51:57;8.20;84.60
69595;DHT22;56800;52.142;5.364;2023-02-20T05:54:24;8.20;84.60
69595;DHT22;56800;52.142;5.364;2023-02-20T05:56:50;8.20;84.60
69595;DHT22;56800;52.142;5.364;2023-02-20T05:59:20;8.20;84.60
69595;DHT22;56800;52.142;5.364;2023-02-20T06:01:47;8.30;84.60
69595;DHT22;56800;52.142;5.364;2023-02-20T06:04:18;8.30;84.60
69595;DHT22;56800;52.142;5.364;2023-02-20T06:06:45;8.30;84.50
69595;DHT22;56800;52.142;5.364;2023-02-20T06:09:13;8.30;84.50
69595;DHT22;56800;52.142;5.364;2023-02-20T06:11:48;8.30;84.50
69595;DHT22;56800;52.142;5.364;2023-02-20T06:14:16;8.30;84.40
69595;DHT22;56800;52.142;5.364;2023-02-20T06:16:44;8.30;84.30
69595;DHT22;56800;52.142;5.364;2023-02-20T06:19:17;8.30;84.20
69595;DHT22;56800;52.142;5.364;2023-02-20T06:21:45;8.30;84.20
69595;DHT22;56800;52.142;5.364;2023-02-20T06:24:12;8.40;84.20
69595;DHT22;56800;52.142;5.364;2023-02-20T06:26:40;8.40;84.30
69595;DHT22;56800;52.142;5.364;2023-02-20T06:29:07;8.40;84.30
69595;DHT22;56800;52.142;5.364;2023-02-20T06:31:35;8.40;84.20
69595;DHT22;56800;52.142;5.364;2023-02-20T06:34:01;8.40;84.10
69595;DHT22;56800;52.142;5.364;2023-02-20T06:36:32;8.40;84.00
69595;DHT22;56800;52.142;5.364;2023-02-20T06:38:59;8.40;84.80
69595;DHT22;56800;52.142;5.364;2023-02-20T06:41:26;8.40;84.00
69595;DHT22;56800;52.142;5.364;2023-02-20T06:43:53;8.50;84.00
69595;DHT22;56800;52.142;5.364;2023-02-20T06:46:20;8.50;83.90
69595;DHT22;56800;52.142;5.364;2023-02-20T06:48:54;8.40;83.80
69595;DHT22;56800;52.142;5.364;2023-02-20T06:51:23;8.50;83.80
69595;DHT22;56800;52.142;5.364;2023-02-20T06:53:50;8.50;83.70
69595;DHT22;56800;52.142;5.364;2023-02-20T06:56:20;8.50;83.70
69595;DHT22;56800;52.142;5.364;2023-02-20T06:58:48;8.50;83.70
69595;DHT22;56800;52.142;5.364;2023-02-20T07:01:16;8.50;83.70
69595;DHT22;56800;52.142;5.364;2023-02-20T07:03:45;8.50;83.60
69595;DHT22;56800;52.142;5.364;2023-02-20T07:06:12;8.50;83.70
69595;DHT22;56800;52.142;5.364;2023-02-20T07:08:39;8.50;83.60
69595;DHT22;56800;52.142;5.364;2023-02-20T07:11:06;8.50;83.60
69595;DHT22;56800;52.142;5.364;2023-02-20T07:13:33;8.50;83.60
69595;DHT22;56800;52.142;5.364;2023-02-20T07:16:00;8.50;83.60
69595;DHT22;56800;52.142;5.364;2023-02-20T07:18:26;8.50;83.60
69595;DHT22;56800;52.142;5.364;2023-02-20T07:20:54;8.50;83.60
69595;DHT22;56800;52.142;5.364;2023-02-20T07:23:21;8.50;83.60
69595;DHT22;56800;52.142;5.364;2023-02-20T07:25:48;8.50;83.60
69595;DHT22;56800;52.142;5.364;2023-02-20T07:28:19;8.50;83.50
69595;DHT22;56800;52.142;5.364;2023-02-20T07:30:46;8.50;83.50
69595;DHT22;56800;52.142;5.364;2023-02-20T07:33:16;8.60;83.60
69595;DHT22;56800;52.142;5.364;2023-02-20T07:35:43;8.50;83.50
69595;DHT22;56800;52.142;5.364;2023-02-20T07:38:10;8.60;83.60
69595;DHT22;56800;52.142;5.364;2023-02-20T07:40:37;8.60;83.60
69595;DHT22;56800;52.142;5.364;2023-02-20T07:43:05;8.60;83.60
69595;DHT22;56800;52.142;5.364;2023-02-20T07:45:32;8.60;83.50
69595;DHT22;56800;52.142;5.364;2023-02-20T07:47:59;8.60;83.50
69595;DHT22;56800;52.142;5.364;2023-02-20T07:50:26;8.70;83.50
69595;DHT22;56800;52.142;5.364;2023-02-20T07:52:53;8.70;83.50
69595;DHT22;56800;52.142;5.364;2023-02-20T07:55:19;8.70;83.50
69595;DHT22;56800;52.142;5.364;2023-02-20T07:57:47;8.70;83.50
69595;DHT22;56800;52.142;5.364;2023-02-20T08:00:16;8.70;83.50
69595;DHT22;56800;52.142;5.364;2023-02-20T08:02:43;8.80;83.50
69595;DHT22;56800;52.142;5.364;2023-02-20T08:05:09;8.80;83.40
69595;DHT22;56800;52.142;5.364;2023-02-20T08:07:36;8.80;83.40
69595;DHT22;56800;52.142;5.364;2023-02-20T08:10:04;8.80;83.40
69595;DHT22;56800;52.142;5.364;2023-02-20T08:12:31;8.80;83.40
69595;DHT22;56800;52.142;5.364;2023-02-20T08:14:57;8.80;83.40
69595;DHT22;56800;52.142;5.364;2023-02-20T08:17:24;8.80;83.40
69595;DHT22;56800;52.142;5.364;2023-02-20T08:19:57;8.80;83.40
69595;DHT22;56800;52.142;5.364;2023-02-20T08:22:24;8.90;83.40
69595;DHT22;56800;52.142;5.364;2023-02-20T08:25:07;8.90;83.40
69595;DHT22;56800;52.142;5.364;2023-02-20T08:27:34;8.90;83.40
69595;DHT22;56800;52.142;5.364;2023-02-20T08:30:05;9.00;83.30
69595;DHT22;56800;52.142;5.364;2023-02-20T08:32:32;8.90;83.20
69595;DHT22;56800;52.142;5.364;2023-02-20T08:34:59;9.00;83.20
69595;DHT22;56800;52.142;5.364;2023-02-20T08:37:26;9.00;83.10
69595;DHT22;56800;52.142;5.364;2023-02-20T08:39:52;9.00;83.10
69595;DHT22;56800;52.142;5.364;2023-02-20T08:42:19;9.10;83.30
69595;DHT22;56800;52.142;5.364;2023-02-20T08:44:46;9.10;83.30
69595;DHT22;56800;52.142;5.364;2023-02-20T08:47:12;9.20;83.30
69595;DHT22;56800;52.142;5.364;2023-02-20T08:49:39;9.20;83.20
69595;DHT22;56800;52.142;5.364;2023-02-20T08:52:06;9.20;83.10
69595;DHT22;56800;52.142;5.364;2023-02-20T08:54:32;9.20;83.00
69595;DHT22;56800;52.142;5.364;2023-02-20T08:56:59;9.30;83.00
69595;DHT22;56800;52.142;5.364;2023-02-20T08:59:26;9.30;83.00
69595;DHT22;56800;52.142;5.364;2023-02-20T09:01:56;9.30;82.90
69595;DHT22;56800;52.142;5.364;2023-02-20T09:04:23;9.30;82.90
69595;DHT22;56800;52.142;5.364;2023-02-20T09:06:49;9.30;82.80
69595;DHT22;56800;52.142;5.364;2023-02-20T09:09:16;9.30;82.70
69595;DHT22;56800;52.142;5.364;2023-02-20T09:11:43;9.30;82.80
69595;DHT22;56800;52.142;5.364;2023-02-20T09:14:10;9.30;82.80
69595;DHT22;56800;52.142;5.364;2023-02-20T09:16:36;9.30;82.00
69595;DHT22;56800;52.142;5.364;2023-02-20T09:19:08;9.30;82.80
69595;DHT22;56800;52.142;5.364;2023-02-20T09:21:35;9.30;82.80
69595;DHT22;56800;52.142;5.364;2023-02-20T09:24:04;9.30;82.80
69595;DHT22;56800;52.142;5.364;2023-02-20T09:26:30;9.30;82.80
69595;DHT22;56800;52.142;5.364;2023-02-20T09:28:57;9.30;82.80
69595;DHT22;56800;52.142;5.364;2023-02-20T09:31:24;9.30;82.80
69595;DHT22;56800;52.142;5.364;2023-02-20T09:33:50;9.30;82.80
69595;DHT22;56800;52.142;5.364;2023-02-20T09:36:17;9.20;82.70
69595;DHT22;56800;52.142;5.364;2023-02-20T09:38:44;9.30;82.80
69595;DHT22;56800;52.142;5.364;2023-02-20T09:44:14;9.30;83.00
69595;DHT22;56800;52.142;5.364;2023-02-20T09:46:44;9.30;83.60
69595;DHT22;56800;52.142;5.364;2023-02-20T09:49:21;9.30;82.90
69595;DHT22;56800;52.142;5.364;2023-02-20T09:51:54;9.40;82.90
69595;DHT22;56800;52.142;5.364;2023-02-20T09:54:26;9.40;82.70
69595;DHT22;56800;52.142;5.364;2023-02-20T09:56:58;9.40;82.80
69595;DHT22;56800;52.142;5.364;2023-02-20T09:59:41;9.50;83.50
69595;DHT22;56800;52.142;5.364;2023-02-20T10:04:46;9.50;82.60
69595;DHT22;56800;52.142;5.364;2023-02-20T10:07:37;9.50;82.40
69595;DHT22;56800;52.142;5.364;2023-02-20T10:10:27;9.50;82.40
69595;DHT22;56800;52.142;5.364;2023-02-20T10:15:41;9.50;82.40
69595;DHT22;56800;52.142;5.364;2023-02-20T10:18:39;9.60;82.50
69595;DHT22;56800;52.142;5.364;2023-02-20T10:30:05;9.60;81.90
69595;DHT22;56800;52.142;5.364;2023-02-20T10:32:49;9.60;82.00
69595;DHT22;56800;52.142;5.364;2023-02-20T10:35:23;9.60;81.90
69595;DHT22;56800;52.142;5.364;2023-02-20T10:37:54;9.70;82.00
69595;DHT22;56800;52.142;5.364;2023-02-20T10:40:27;9.70;82.00
69595;DHT22;56800;52.142;5.364;2023-02-20T10:45:47;9.70;82.00
69595;DHT22;56800;52.142;5.364;2023-02-20T10:48:16;9.70;81.90
69595;DHT22;56800;52.142;5.364;2023-02-20T10:51:07;9.70;81.90
69595;DHT22;56800;52.142;5.364;2023-02-20T10:56:29;9.80;81.80
69595;DHT22;56800;52.142;5.364;2023-02-20T11:01:34;9.80;81.40
69595;DHT22;56800;52.142;5.364;2023-02-20T11:04:05;9.80;81.50
69595;DHT22;56800;52.142;5.364;2023-02-20T11:06:47;9.80;81.60
69595;DHT22;56800;52.142;5.364;2023-02-20T11:09:15;9.80;81.60
69595;DHT22;56800;52.142;5.364;2023-02-20T11:11:44;9.90;81.60
69595;DHT22;56800;52.142;5.364;2023-02-20T11:14:15;9.80;81.60
69595;DHT22;56800;52.142;5.364;2023-02-20T11:19:25;9.80;81.30
69595;DHT22;56800;52.142;5.364;2023-02-20T11:21:54;9.80;81.20
69595;DHT22;56800;52.142;5.364;2023-02-20T11:24:34;9.80;81.10
69595;DHT22;56800;52.142;5.364;2023-02-20T11:27:21;9.80;81.20
69595;DHT22;56800;52.142;5.364;2023-02-20T11:32:48;9.80;81.20
69595;DHT22;56800;52.142;5.364;2023-02-20T11:38:15;9.90;81.10
69595;DHT22;56800;52.142;5.364;2023-02-20T11:40:36;9.90;81.10
69595;DHT22;56800;52.142;5.364;2023-02-20T11:43:20;9.90;81.00
69595;DHT22;56800;52.142;5.364;2023-02-20T11:45:47;9.90;81.00
69595;DHT22;56800;52.142;5.364;2023-02-20T11:48:15;9.90;81.10
69595;DHT22;56800;52.142;5.364;2023-02-20T11:50:45;9.90;81.00
69595;DHT22;56800;52.142;5.364;2023-02-20T11:53:21;9.90;81.10
69595;DHT22;56800;52.142;5.364;2023-02-20T11:56:10;10.00;81.10
69595;DHT22;56800;52.142;5.364;2023-02-20T11:58:37;9.90;80.90
69595;DHT22;56800;52.142;5.364;2023-02-20T12:01:05;9.90;80.90
69595;DHT22;56800;52.142;5.364;2023-02-20T12:03:34;9.90;80.90
69595;DHT22;56800;52.142;5.364;2023-02-20T12:06:26;9.90;80.90
69595;DHT22;56800;52.142;5.364;2023-02-20T12:09:06;9.90;80.90
69595;DHT22;56800;52.142;5.364;2023-02-20T12:11:35;9.90;80.90
69595;DHT22;56800;52.142;5.364;2023-02-20T12:14:02;9.90;80.90
69595;DHT22;56800;52.142;5.364;2023-02-20T12:17:05;9.90;80.90
69595;DHT22;56800;52.142;5.364;2023-02-20T12:22:12;9.80;80.90
69595;DHT22;56800;52.142;5.364;2023-02-20T12:28:06;9.90;81.00
69595;DHT22;56800;52.142;5.364;2023-02-20T12:33:38;9.90;80.90
69595;DHT22;56800;52.142;5.364;2023-02-20T12:36:37;9.90;81.00
69595;DHT22;56800;52.142;5.364;2023-02-20T12:39:16;10.00;80.90
69595;DHT22;56800;52.142;5.364;2023-02-20T12:41:56;10.00;80.80
69595;DHT22;56800;52.142;5.364;2023-02-20T12:53:19;10.00;80.80
69595;DHT22;56800;52.142;5.364;2023-02-20T13:02:02;10.10;80.80
69595;DHT22;56800;52.142;5.364;2023-02-20T13:04:53;10.20;80.80
69595;DHT22;56800;52.142;5.364;2023-02-20T13:07:36;10.20;80.70
69595;DHT22;56800;52.142;5.364;2023-02-20T13:10:23;10.20;80.80
69595;DHT22;56800;52.142;5.364;2023-02-20T13:12:51;10.10;80.60
69595;DHT22;56800;52.142;5.364;2023-02-20T13:18:11;10.20;80.50
69595;DHT22;56800;52.142;5.364;2023-02-20T13:20:49;10.20;80.40
69595;DHT22;56800;52.142;5.364;2023-02-20T13:25:46;10.30;80.40
69595;DHT22;56800;52.142;5.364;2023-02-20T13:28:38;10.30;80.40
69595;DHT22;56800;52.142;5.364;2023-02-20T13:31:23;10.30;80.40
69595;DHT22;56800;52.142;5.364;2023-02-20T13:36:38;10.30;80.30
69595;DHT22;56800;52.142;5.364;2023-02-20T13:54:55;10.30;80.10
69595;DHT22;56800;52.142;5.364;2023-02-20T13:57:22;10.20;80.10
69595;DHT22;56800;52.142;5.364;2023-02-20T13:59:51;10.30;80.00
69595;DHT22;56800;52.142;5.364;2023-02-20T14:02:23;10.20;80.00
69595;DHT22;56800;52.142;5.364;2023-02-20T14:04:57;10.30;80.00
69595;DHT22;56800;52.142;5.364;2023-02-20T14:07:38;10.30;80.10
69595;DHT22;56800;52.142;5.364;2023-02-20T14:15:57;10.30;80.00
69595;DHT22;56800;52.142;5.364;2023-02-20T14:18:29;10.30;79.80
69595;DHT22;56800;52.142;5.364;2023-02-20T14:23:31;10.30;79.90
69595;DHT22;56800;52.142;5.364;2023-02-20T14:26:16;10.30;79.80
69595;DHT22;56800;52.142;5.364;2023-02-20T14:28:47;10.20;79.80
69595;DHT22;56800;52.142;5.364;2023-02-20T14:31:22;10.20;79.80
69595;DHT22;56800;52.142;5.364;2023-02-20T14:33:54;10.20;79.90
69595;DHT22;56800;52.142;5.364;2023-02-20T14:39:20;10.20;79.90
69595;DHT22;56800;52.142;5.364;2023-02-20T14:42:00;10.20;79.80
69595;DHT22;56800;52.142;5.364;2023-02-20T14:44:29;10.20;79.70
69595;DHT22;56800;52.142;5.364;2023-02-20T14:47:06;10.20;79.80
69595;DHT22;56800;52.142;5.364;2023-02-20T14:49:34;10.20;79.80
69595;DHT22;56800;52.142;5.364;2023-02-20T14:52:22;10.20;79.80
69595;DHT22;56800;52.142;5.364;2023-02-20T14:55:01;10.20;79.80
69595;DHT22;56800;52.142;5.364;2023-02-20T14:57:28;10.10;79.80
69595;DHT22;56800;52.142;5.364;2023-02-20T15:00:10;10.10;79.80
69595;DHT22;56800;52.142;5.364;2023-02-20T15:02:40;10.10;79.80
69595;DHT22;56800;52.142;5.364;2023-02-20T15:05:09;10.10;79.80
69595;DHT22;56800;52.142;5.364;2023-02-20T15:07:39;10.10;79.70
69595;DHT22;56800;52.142;5.364;2023-02-20T15:10:34;10.10;79.70
69595;DHT22;56800;52.142;5.364;2023-02-20T15:13:11;10.10;79.80
69595;DHT22;56800;52.142;5.364;2023-02-20T15:15:42;10.10;79.80
69595;DHT22;56800;52.142;5.364;2023-02-20T15:18:15;10.10;79.70
69595;DHT22;56800;52.142;5.364;2023-02-20T15:20:45;10.00;79.70
69595;DHT22;56800;52.142;5.364;2023-02-20T15:23:35;10.00;80.10
69595;DHT22;56800;52.142;5.364;2023-02-20T15:26:34;10.00;79.70
69595;DHT22;56800;52.142;5.364;2023-02-20T15:29:24;10.00;79.70
69595;DHT22;56800;52.142;5.364;2023-02-20T15:32:17;10.00;79.90
69595;DHT22;56800;52.142;5.364;2023-02-20T15:34:52;10.00;79.90
69595;DHT22;56800;52.142;5.364;2023-02-20T15:42:46;10.00;79.90
69595;DHT22;56800;52.142;5.364;2023-02-20T15:45:13;9.90;79.80
69595;DHT22;56800;52.142;5.364;2023-02-20T15:47:41;9.90;79.80
69595;DHT22;56800;52.142;5.364;2023-02-20T15:50:07;9.90;79.90
69595;DHT22;56800;52.142;5.364;2023-02-20T15:52:34;9.90;79.90
69595;DHT22;56800;52.142;5.364;2023-02-20T15:55:01;9.80;79.90
69595;DHT22;56800;52.142;5.364;2023-02-20T15:57:28;9.80;80.00
69595;DHT22;56800;52.142;5.364;2023-02-20T15:59:55;9.80;80.10
69595;DHT22;56800;52.142;5.364;2023-02-20T16:02:21;9.80;80.20
69595;DHT22;56800;52.142;5.364;2023-02-20T16:04:50;9.80;80.30
69595;DHT22;56800;52.142;5.364;2023-02-20T16:07:19;9.80;80.20
69595;DHT22;56800;52.142;5.364;2023-02-20T16:09:46;9.80;80.20
69595;DHT22;56800;52.142;5.364;2023-02-20T16:12:26;9.80;80.20
69595;DHT22;56800;52.142;5.364;2023-02-20T16:14:54;9.80;80.20
69595;DHT22;56800;52.142;5.364;2023-02-20T16:17:23;9.90;80.20
69595;DHT22;56800;52.142;5.364;2023-02-20T16:19:51;9.90;80.10
69595;DHT22;56800;52.142;5.364;2023-02-20T16:22:18;9.80;80.10
69595;DHT22;56800;52.142;5.364;2023-02-20T16:24:45;9.80;80.00
69595;DHT22;56800;52.142;5.364;2023-02-20T16:27:24;9.90;80.10
69595;DHT22;56800;52.142;5.364;2023-02-20T16:29:52;9.80;80.10
69595;DHT22;56800;52.142;5.364;2023-02-20T16:34:53;9.80;80.10
69595;DHT22;56800;52.142;5.364;2023-02-20T16:37:20;9.80;80.00
69595;DHT22;56800;52.142;5.364;2023-02-20T16:39:48;9.80;80.10
69595;DHT22;56800;52.142;5.364;2023-02-20T16:44:51;9.80;80.20
69595;DHT22;56800;52.142;5.364;2023-02-20T16:47:24;9.70;80.10
69595;DHT22;56800;52.142;5.364;2023-02-20T16:49:51;9.80;80.20
69595;DHT22;56800;52.142;5.364;2023-02-20T16:52:27;9.80;80.20
69595;DHT22;56800;52.142;5.364;2023-02-20T16:54:56;9.80;80.20
69595;DHT22;56800;52.142;5.364;2023-02-20T16:57:23;9.80;80.20
69595;DHT22;56800;52.142;5.364;2023-02-20T16:59:55;9.80;80.20
69595;DHT22;56800;52.142;5.364;2023-02-20T17:02:26;9.80;80.20
69595;DHT22;56800;52.142;5.364;2023-02-20T17:04:53;9.80;80.20
69595;DHT22;56800;52.142;5.364;2023-02-20T17:07:20;9.80;80.10
69595;DHT22;56800;52.142;5.364;2023-02-20T17:09:47;9.70;80.00
69595;DHT22;56800;52.142;5.364;2023-02-20T17:12:17;9.70;80.10
69595;DHT22;56800;52.142;5.364;2023-02-20T17:14:44;9.70;80.10
69595;DHT22;56800;52.142;5.364;2023-02-20T17:17:12;9.70;80.20
69595;DHT22;56800;52.142;5.364;2023-02-20T17:19:40;9.70;80.20
69595;DHT22;56800;52.142;5.364;2023-02-20T17:22:08;9.70;80.20
69595;DHT22;56800;52.142;5.364;2023-02-20T17:24:39;9.70;80.30
69595;DHT22;56800;52.142;5.364;2023-02-20T17:27:07;9.70;80.30
69595;DHT22;56800;52.142;5.364;2023-02-20T17:29:34;9.70;80.30
69595;DHT22;56800;52.142;5.364;2023-02-20T17:32:01;9.70;80.30
69595;DHT22;56800;52.142;5.364;2023-02-20T17:34:27;9.60;80.20
69595;DHT22;56800;52.142;5.364;2023-02-20T17:36:54;9.70;80.30
69595;DHT22;56800;52.142;5.364;2023-02-20T17:39:22;9.60;80.30
69595;DHT22;56800;52.142;5.364;2023-02-20T17:41:51;9.60;80.30
69595;DHT22;56800;52.142;5.364;2023-02-20T17:44:24;9.60;80.30
69595;DHT22;56800;52.142;5.364;2023-02-20T17:46:53;9.60;80.40
69595;DHT22;56800;52.142;5.364;2023-02-20T17:49:21;9.60;80.30
69595;DHT22;56800;52.142;5.364;2023-02-20T17:51:53;9.60;81.00
69595;DHT22;56800;52.142;5.364;2023-02-20T17:54:30;9.60;80.30
69595;DHT22;56800;52.142;5.364;2023-02-20T17:57:00;9.60;80.30
69595;DHT22;56800;52.142;5.364;2023-02-20T17:59:27;9.60;80.30
69595;DHT22;56800;52.142;5.364;2023-02-20T18:01:54;9.60;80.30
69595;DHT22;56800;52.142;5.364;2023-02-20T18:04:21;9.60;80.30
69595;DHT22;56800;52.142;5.364;2023-02-20T18:06:47;9.50;80.30
69595;DHT22;56800;52.142;5.364;2023-02-20T18:09:16;9.50;80.30
69595;DHT22;56800;52.142;5.364;2023-02-20T18:11:43;9.50;80.30
69595;DHT22;56800;52.142;5.364;2023-02-20T18:14:10;9.50;80.40
69595;DHT22;56800;52.142;5.364;2023-02-20T18:16:37;9.50;80.40
69595;DHT22;56800;52.142;5.364;2023-02-20T18:19:08;9.50;80.50
69595;DHT22;56800;52.142;5.364;2023-02-20T18:21:36;9.50;80.50
69595;DHT22;56800;52.142;5.364;2023-02-20T18:24:06;9.40;80.40